Weather History for Caldwell, ID

Change the Weather History Date:

Thursday, June 27, 2013

  Actual Average (KBOI) Record (KBOI)
Temperature  
Mean Temperature 75 °F 71 °F  
Max Temperature 93 °F 86 °F 104 °F (1892)
Min Temperature 57 °F 56 °F 41 °F (1965)
Degree Days  
Heating Degree Days 0 1  
Month to date heating degree days 61  
Since 1 June heating degree days 61  
Since 1 July heating degree days 5511  
Cooling Degree Days 10 7  
Month to date cooling degree days 116  
Year to date cooling degree days 160  
Since 1 June cooling degree days 116  
Growing Degree Days 25 (Base 50)    
Moisture  
Dew Point 54 °F    
Average Humidity 52    
Maximum Humidity 77    
Minimum Humidity 27    
Precipitation  
Precipitation 0.00 in 0.01 in 0.52 in (1941)
Month to date precipitation 0.65  
Year to date precipitation 6.89  
Snow  
Snow 0.00 in 0.00 in 0.00 in (2007)
Month to date snowfall 0.0  
Since 1 July snowfall 19.2  
Snow Depth -    
Sea Level Pressure  
Sea Level Pressure 30.13 in    
Wind  
Wind Speed 6 mph (NW)    
Max Wind Speed 12 mph    
Max Gust Speed -    
Visibility 10 miles    
Events      
T = Trace of Precipitation, MM = Missing Value Source: NWS Daily Summary

Daily Weather History Graph

Daily Weather History Graph

Search for Another Location

Airport:

Trip Planner

Search our weather history database for the weather conditions in past years. The results will help you decide how hot, cold, wet, or windy it might be!

Date:

Astronomy

Jun. 27, 2013 Rise Set
Actual Time 6:07 AM MDT 9:32 PM MDT
Civil Twilight 5:31 AM MDT 10:08 PM MDT
Nautical Twilight 4:44 AM MDT 10:54 PM MDT
Astronomical Twilight 3:45 AM MDT 11:53 PM MDT
Moon No Moon Rise 11:23 AM MDT (6/27)
Length of Visible Light 16h 36m
Length of Day
15h 25m
Waning Gibbous, 76% of the Moon is Illuminated
Jun 27
Waning Gibbous
Jun 29
Last Quarter
Jul 8
New
Jul 15
First Quarter
Jul 22
Full

Hourly Weather History & Observations

Time (MDT) Temp. Heat Index Dew Point Humidity Pressure Visibility Wind Dir Wind Speed Gust Speed Precip Events Conditions
12:15 AM 66.2 °F - 53.6 °F 64% 30.08 in 10.0 mi WNW 9.2 mph - N/A   Clear
12:35 AM 66.2 °F - 53.6 °F 64% 30.08 in 10.0 mi WNW 10.4 mph - N/A   Clear
12:55 AM 64.4 °F - 53.6 °F 68% 30.08 in 10.0 mi WNW 10.4 mph - N/A   Clear
1:15 AM 64.4 °F - 53.6 °F 68% 30.09 in 10.0 mi WNW 10.4 mph - N/A   Clear
1:35 AM 64.4 °F - 53.6 °F 68% 30.10 in 10.0 mi WNW 8.1 mph - N/A   Clear
1:55 AM 64.4 °F - 53.6 °F 68% 30.10 in 10.0 mi West 8.1 mph - N/A   Clear
2:15 AM 64.4 °F - 51.8 °F 64% 30.10 in 10.0 mi West 11.5 mph - N/A   Clear
2:35 AM 62.6 °F - 51.8 °F 68% 30.10 in 10.0 mi West 8.1 mph - N/A   Clear
2:55 AM 62.6 °F - 51.8 °F 68% 30.11 in 10.0 mi WNW 10.4 mph - N/A   Clear
3:15 AM 62.6 °F - 51.8 °F 68% 30.11 in 10.0 mi West 5.8 mph - N/A   Clear
3:35 AM 62.6 °F - 51.8 °F 68% 30.11 in 10.0 mi WNW 9.2 mph - N/A   Clear
3:55 AM 62.6 °F - 51.8 °F 68% 30.11 in 10.0 mi West 10.4 mph - N/A   Clear
4:15 AM 62.6 °F - 51.8 °F 68% 30.11 in 10.0 mi West 10.4 mph - N/A   Clear
4:35 AM 62.6 °F - 51.8 °F 68% 30.12 in 10.0 mi NW 8.1 mph - N/A   Clear
4:55 AM 62.6 °F - 51.8 °F 68% 30.12 in 10.0 mi West 3.5 mph - N/A   Clear
5:15 AM 60.8 °F - 50.0 °F 68% 30.12 in 10.0 mi WNW 4.6 mph - N/A   Clear
5:35 AM 60.8 °F - 50.0 °F 68% 30.13 in 10.0 mi NW 8.1 mph - N/A   Clear
5:55 AM 59.0 °F - 50.0 °F 72% 30.13 in 10.0 mi WNW 6.9 mph - N/A   Clear
6:35 AM 57.2 °F - 48.2 °F 72% 30.15 in 10.0 mi Calm Calm - N/A   Clear
6:55 AM 57.2 °F - 50.0 °F 77% 30.15 in 10.0 mi Calm Calm - N/A   Clear
7:15 AM 59.0 °F - 51.8 °F 77% 30.15 in 10.0 mi NNW 3.5 mph - N/A   Clear
7:35 AM 60.8 °F - 51.8 °F 72% 30.16 in 10.0 mi Calm Calm - N/A   Clear
7:55 AM 62.6 °F - 51.8 °F 68% 30.17 in 10.0 mi Calm Calm - N/A   Clear
8:15 AM 62.6 °F - 53.6 °F 72% 30.17 in 10.0 mi Calm Calm - N/A   Clear
8:35 AM 62.6 °F - 53.6 °F 72% 30.18 in 10.0 mi Calm Calm - N/A   Clear
8:55 AM 64.4 °F - 53.6 °F 68% 30.18 in 10.0 mi North 3.5 mph - N/A   Clear
9:15 AM 66.2 °F - 55.4 °F 68% 30.19 in 10.0 mi NNW 5.8 mph - N/A   Clear
9:35 AM 66.2 °F - 55.4 °F 68% 30.19 in 10.0 mi NNW 4.6 mph - N/A   Clear
9:55 AM 68.0 °F - 55.4 °F 64% 30.19 in 10.0 mi NNW 6.9 mph - N/A   Clear
10:15 AM 69.8 °F - 55.4 °F 60% 30.19 in 10.0 mi NNW 4.6 mph - N/A   Clear
10:35 AM 71.6 °F - 55.4 °F 57% 30.19 in 10.0 mi NNW 4.6 mph - N/A   Clear
10:55 AM 73.4 °F - 55.4 °F 53% 30.19 in 10.0 mi NW 4.6 mph - N/A   Clear
11:15 AM 73.4 °F - 55.4 °F 53% 30.19 in 10.0 mi North 4.6 mph - N/A   Clear
11:35 AM 75.2 °F - 55.4 °F 50% 30.19 in 10.0 mi WNW 4.6 mph - N/A   Clear
11:55 AM 75.2 °F - 55.4 °F 50% 30.19 in 10.0 mi North 4.6 mph - N/A   Clear
12:15 PM 77.0 °F - 55.4 °F 47% 30.18 in 10.0 mi NNE 3.5 mph - N/A   Clear
12:35 PM 78.8 °F - 57.2 °F 47% 30.17 in 10.0 mi Calm Calm - N/A   Clear
12:55 PM 78.8 °F - 57.2 °F 47% 30.17 in 10.0 mi Calm Calm - N/A   Clear
1:15 PM 80.6 °F 80.8 °F 57.2 °F 45% 30.17 in 10.0 mi WNW 3.5 mph - N/A   Clear
1:35 PM 82.4 °F 82.0 °F 57.2 °F 42% 30.16 in 10.0 mi NNE 4.6 mph - N/A   Clear
1:55 PM 84.2 °F 83.5 °F 57.2 °F 40% 30.15 in 10.0 mi ENE 3.5 mph - N/A   Clear
2:15 PM 84.2 °F 83.0 °F 55.4 °F 37% 30.15 in 10.0 mi East 3.5 mph - N/A   Clear
2:35 PM 84.2 °F 82.8 °F 53.6 °F 35% 30.14 in 10.0 mi ESE 5.8 mph - N/A   Clear
2:55 PM 86.0 °F 84.5 °F 55.4 °F 35% 30.14 in 10.0 mi Calm Calm - N/A   Clear
3:15 PM 87.8 °F 86.1 °F 55.4 °F 33% 30.13 in 10.0 mi NE 4.6 mph - N/A   Clear
3:35 PM 89.6 °F 87.7 °F 55.4 °F 31% 30.12 in 10.0 mi North 3.5 mph - N/A   Clear
3:55 PM 89.6 °F 87.3 °F 53.6 °F 29% 30.12 in 10.0 mi NNE 3.5 mph - N/A   Clear
4:15 PM 91.4 °F 89.4 °F 55.4 °F 29% 30.11 in 10.0 mi North 6.9 mph - N/A   Clear
4:35 PM 91.4 °F 89.4 °F 55.4 °F 29% 30.11 in 10.0 mi NNE 4.6 mph - N/A   Clear
4:55 PM 91.4 °F 89.9 °F 57.2 °F 31% 30.10 in 10.0 mi North 4.6 mph - N/A   Clear
5:15 PM 93.2 °F 91.9 °F 57.2 °F 30% 30.10 in 10.0 mi NE 5.8 mph - N/A   Clear
5:35 PM 93.2 °F 91.3 °F 55.4 °F 28% 30.09 in 10.0 mi NE 6.9 mph - N/A   Clear
5:55 PM 91.4 °F 89.9 °F 57.2 °F 31% 30.09 in 10.0 mi NNW 5.8 mph - N/A   Clear
6:15 PM 91.4 °F 89.4 °F 55.4 °F 29% 30.08 in 10.0 mi North 9.2 mph - N/A   Clear
6:35 PM 91.4 °F 89.9 °F 57.2 °F 31% 30.08 in 10.0 mi NNW 9.2 mph - N/A   Clear
6:55 PM 91.4 °F 89.1 °F 53.6 °F 28% 30.08 in 10.0 mi NNW 9.2 mph - N/A   Clear
7:15 PM 89.6 °F 87.3 °F 53.6 °F 29% 30.08 in 10.0 mi NNW 6.9 mph - N/A   Clear
7:35 PM 89.6 °F 87.7 °F 55.4 °F 31% 30.08 in 10.0 mi NNW 8.1 mph - N/A   Clear
7:55 PM 89.6 °F - 51.8 °F 27% 30.08 in 10.0 mi NNW 6.9 mph - N/A   Clear
8:15 PM 87.8 °F 85.7 °F 53.6 °F 31% 30.08 in 10.0 mi NW 6.9 mph - N/A   Clear
8:35 PM 87.8 °F 85.7 °F 53.6 °F 31% 30.08 in 10.0 mi NNW 5.8 mph - N/A   Clear
8:55 PM 84.2 °F 83.5 °F 57.2 °F 40% 30.08 in 10.0 mi NW 5.8 mph - N/A   Clear
9:15 PM 84.2 °F 83.0 °F 55.4 °F 37% 30.08 in 10.0 mi WNW 5.8 mph - N/A   Clear
9:35 PM 84.2 °F 83.0 °F 55.4 °F 37% 30.09 in 10.0 mi West 4.6 mph - N/A   Clear
9:55 PM 80.6 °F 80.8 °F 57.2 °F 45% 30.09 in 10.0 mi West 5.8 mph - N/A   Clear
10:15 PM 78.8 °F - 57.2 °F 47% 30.10 in 10.0 mi West 3.5 mph - N/A   Clear
10:35 PM 80.6 °F 80.8 °F 57.2 °F 45% 30.11 in 10.0 mi Calm Calm - N/A   Clear
10:55 PM 75.2 °F - 57.2 °F 53% 30.11 in 10.0 mi Calm Calm - N/A   Clear
11:15 PM 73.4 °F - 57.2 °F 57% 30.11 in 10.0 mi Calm Calm - N/A   Clear
11:35 PM 71.6 °F - 57.2 °F 60% 30.12 in 10.0 mi Calm Calm - N/A   Clear
11:55 PM 71.6 °F - 57.2 °F 60% 30.12 in 8.0 mi Calm Calm - N/A   Clear